sensor_id;sensor_type;location;lat;lon;timestamp;pressure;altitude;pressure_sealevel;temperature
76713;BMP280;65640;43.154;25.658;2024-02-26T00:01:26;100232.00;;;13.15
76713;BMP280;65640;43.154;25.658;2024-02-26T00:03:51;100229.75;;;13.09
76713;BMP280;65640;43.154;25.658;2024-02-26T00:06:17;100226.97;;;13.05
76713;BMP280;65640;43.154;25.658;2024-02-26T00:08:43;100229.25;;;12.93
76713;BMP280;65640;43.154;25.658;2024-02-26T00:11:09;100227.13;;;12.81
76713;BMP280;65640;43.154;25.658;2024-02-26T00:13:35;100231.75;;;12.71
76713;BMP280;65640;43.154;25.658;2024-02-26T00:16:01;100230.03;;;12.47
76713;BMP280;65640;43.154;25.658;2024-02-26T00:18:26;100232.09;;;12.50
76713;BMP280;65640;43.154;25.658;2024-02-26T00:20:51;100220.72;;;12.55
76713;BMP280;65640;43.154;25.658;2024-02-26T00:23:17;100225.19;;;12.54
76713;BMP280;65640;43.154;25.658;2024-02-26T00:25:42;100218.78;;;12.61
76713;BMP280;65640;43.154;25.658;2024-02-26T00:28:09;100209.75;;;12.67
76713;BMP280;65640;43.154;25.658;2024-02-26T00:30:35;100206.81;;;12.54
76713;BMP280;65640;43.154;25.658;2024-02-26T00:33:00;100209.19;;;12.70
76713;BMP280;65640;43.154;25.658;2024-02-26T00:35:26;100208.41;;;12.69
76713;BMP280;65640;43.154;25.658;2024-02-26T00:37:51;100204.00;;;12.65
76713;BMP280;65640;43.154;25.658;2024-02-26T00:40:16;100209.84;;;12.62
76713;BMP280;65640;43.154;25.658;2024-02-26T00:42:42;100206.03;;;12.54
76713;BMP280;65640;43.154;25.658;2024-02-26T00:45:11;100199.72;;;12.69
76713;BMP280;65640;43.154;25.658;2024-02-26T00:47:37;100197.28;;;13.05
76713;BMP280;65640;43.154;25.658;2024-02-26T00:50:02;100193.28;;;13.07
76713;BMP280;65640;43.154;25.658;2024-02-26T00:52:28;100194.34;;;13.20
76713;BMP280;65640;43.154;25.658;2024-02-26T00:54:53;100194.31;;;13.33
76713;BMP280;65640;43.154;25.658;2024-02-26T00:57:18;100191.22;;;13.45
76713;BMP280;65640;43.154;25.658;2024-02-26T00:59:44;100184.34;;;13.71
76713;BMP280;65640;43.154;25.658;2024-02-26T01:02:09;100184.56;;;13.97
76713;BMP280;65640;43.154;25.658;2024-02-26T01:04:35;100179.34;;;14.06
76713;BMP280;65640;43.154;25.658;2024-02-26T01:07:00;100167.72;;;14.29
76713;BMP280;65640;43.154;25.658;2024-02-26T01:09:25;100169.81;;;14.41
76713;BMP280;65640;43.154;25.658;2024-02-26T01:11:51;100162.13;;;14.53
76713;BMP280;65640;43.154;25.658;2024-02-26T01:14:16;100170.25;;;14.65
76713;BMP280;65640;43.154;25.658;2024-02-26T01:16:41;100167.63;;;14.65
76713;BMP280;65640;43.154;25.658;2024-02-26T01:19:07;100156.72;;;14.58
76713;BMP280;65640;43.154;25.658;2024-02-26T01:21:32;100165.88;;;14.60
76713;BMP280;65640;43.154;25.658;2024-02-26T01:23:57;100165.41;;;14.58
76713;BMP280;65640;43.154;25.658;2024-02-26T01:26:23;100154.91;;;14.67
76713;BMP280;65640;43.154;25.658;2024-02-26T01:28:48;100163.91;;;14.74
76713;BMP280;65640;43.154;25.658;2024-02-26T01:31:14;100153.69;;;14.73
76713;BMP280;65640;43.154;25.658;2024-02-26T01:33:39;100153.78;;;14.68
76713;BMP280;65640;43.154;25.658;2024-02-26T01:36:05;100153.50;;;14.69
76713;BMP280;65640;43.154;25.658;2024-02-26T01:38:31;100160.78;;;14.64
76713;BMP280;65640;43.154;25.658;2024-02-26T01:40:56;100159.53;;;14.70
76713;BMP280;65640;43.154;25.658;2024-02-26T01:43:22;100166.97;;;14.68
76713;BMP280;65640;43.154;25.658;2024-02-26T01:45:47;100155.03;;;14.62
76713;BMP280;65640;43.154;25.658;2024-02-26T01:48:13;100155.03;;;14.62
76713;BMP280;65640;43.154;25.658;2024-02-26T01:50:40;100164.63;;;14.58
76713;BMP280;65640;43.154;25.658;2024-02-26T01:53:06;100164.13;;;14.56
76713;BMP280;65640;43.154;25.658;2024-02-26T01:55:32;100165.47;;;14.45
76713;BMP280;65640;43.154;25.658;2024-02-26T01:57:58;100169.00;;;14.09
76713;BMP280;65640;43.154;25.658;2024-02-26T02:00:24;100164.56;;;13.74
76713;BMP280;65640;43.154;25.658;2024-02-26T02:02:50;100174.28;;;13.51
76713;BMP280;65640;43.154;25.658;2024-02-26T02:05:16;100162.19;;;13.36
76713;BMP280;65640;43.154;25.658;2024-02-26T02:07:44;100174.59;;;13.22
76713;BMP280;65640;43.154;25.658;2024-02-26T02:10:10;100169.91;;;13.19
76713;BMP280;65640;43.154;25.658;2024-02-26T02:12:35;100172.34;;;13.16
76713;BMP280;65640;43.154;25.658;2024-02-26T02:15:04;100170.59;;;12.97
76713;BMP280;65640;43.154;25.658;2024-02-26T02:17:30;100178.19;;;12.99
76713;BMP280;65640;43.154;25.658;2024-02-26T02:19:56;100170.88;;;12.96
76713;BMP280;65640;43.154;25.658;2024-02-26T02:22:21;100170.38;;;12.94
76713;BMP280;65640;43.154;25.658;2024-02-26T02:24:48;100173.00;;;12.80
76713;BMP280;65640;43.154;25.658;2024-02-26T02:27:13;100165.88;;;12.67
76713;BMP280;65640;43.154;25.658;2024-02-26T02:29:39;100169.84;;;12.51
76713;BMP280;65640;43.154;25.658;2024-02-26T02:32:04;100169.41;;;12.63
76713;BMP280;65640;43.154;25.658;2024-02-26T02:34:31;100176.19;;;12.64
76713;BMP280;65640;43.154;25.658;2024-02-26T02:36:57;100175.72;;;12.62
76713;BMP280;65640;43.154;25.658;2024-02-26T02:39:22;100180.38;;;12.65
76713;BMP280;65640;43.154;25.658;2024-02-26T02:41:48;100184.38;;;12.62
76713;BMP280;65640;43.154;25.658;2024-02-26T02:44:13;100176.97;;;12.64
76713;BMP280;65640;43.154;25.658;2024-02-26T02:46:39;100179.59;;;12.64
76713;BMP280;65640;43.154;25.658;2024-02-26T02:49:08;100173.47;;;12.55
76713;BMP280;65640;43.154;25.658;2024-02-26T02:51:33;100184.41;;;12.43
76713;BMP280;65640;43.154;25.658;2024-02-26T02:53:59;100173.88;;;12.30
76713;BMP280;65640;43.154;25.658;2024-02-26T02:56:24;100184.56;;;12.33
76713;BMP280;65640;43.154;25.658;2024-02-26T02:58:49;100179.41;;;12.28
76713;BMP280;65640;43.154;25.658;2024-02-26T03:01:15;100185.16;;;12.30
76713;BMP280;65640;43.154;25.658;2024-02-26T03:03:40;100189.09;;;11.95
76713;BMP280;65640;43.154;25.658;2024-02-26T03:06:05;100191.16;;;11.74
76713;BMP280;65640;43.154;25.658;2024-02-26T03:08:31;100193.78;;;11.56
76713;BMP280;65640;43.154;25.658;2024-02-26T03:10:58;100197.38;;;11.41
76713;BMP280;65640;43.154;25.658;2024-02-26T03:13:24;100190.13;;;11.33
76713;BMP280;65640;43.154;25.658;2024-02-26T03:15:49;100191.44;;;11.30
76713;BMP280;65640;43.154;25.658;2024-02-26T03:18:15;100198.06;;;11.28
76713;BMP280;65640;43.154;25.658;2024-02-26T03:20:40;100195.72;;;11.26
76713;BMP280;65640;43.154;25.658;2024-02-26T03:23:06;100205.97;;;11.23
76713;BMP280;65640;43.154;25.658;2024-02-26T03:25:31;100203.91;;;11.20
76713;BMP280;65640;43.154;25.658;2024-02-26T03:27:56;100207.03;;;11.22
76713;BMP280;65640;43.154;25.658;2024-02-26T03:30:22;100205.97;;;11.23
76713;BMP280;65640;43.154;25.658;2024-02-26T03:32:47;100205.75;;;11.19
76713;BMP280;65640;43.154;25.658;2024-02-26T03:35:12;100192.91;;;11.18
76713;BMP280;65640;43.154;25.658;2024-02-26T03:37:38;100203.38;;;11.18
76713;BMP280;65640;43.154;25.658;2024-02-26T03:40:04;100203.38;;;11.18
76713;BMP280;65640;43.154;25.658;2024-02-26T03:42:29;100195.03;;;11.16
76713;BMP280;65640;43.154;25.658;2024-02-26T03:44:55;100199.47;;;11.15
76713;BMP280;65640;43.154;25.658;2024-02-26T03:47:20;100204.50;;;11.12
76713;BMP280;65640;43.154;25.658;2024-02-26T03:49:45;100195.91;;;11.06
76713;BMP280;65640;43.154;25.658;2024-02-26T03:52:11;100217.63;;;11.07
76713;BMP280;65640;43.154;25.658;2024-02-26T03:54:36;100204.38;;;10.98
76713;BMP280;65640;43.154;25.658;2024-02-26T03:57:02;100214.16;;;10.87
76713;BMP280;65640;43.154;25.658;2024-02-26T03:59:27;100210.22;;;10.90
76713;BMP280;65640;43.154;25.658;2024-02-26T04:01:52;100209.25;;;10.81
76713;BMP280;65640;43.154;25.658;2024-02-26T04:04:18;100212.06;;;10.84
76713;BMP280;65640;43.154;25.658;2024-02-26T04:06:46;100206.75;;;10.95
76713;BMP280;65640;43.154;25.658;2024-02-26T04:09:15;100219.53;;;11.01
76713;BMP280;65640;43.154;25.658;2024-02-26T04:11:40;100199.44;;;10.92
76713;BMP280;65640;43.154;25.658;2024-02-26T04:14:06;100208.38;;;10.91
76713;BMP280;65640;43.154;25.658;2024-02-26T04:16:34;100199.22;;;10.88
76713;BMP280;65640;43.154;25.658;2024-02-26T04:19:00;100195.41;;;10.75
76713;BMP280;65640;43.154;25.658;2024-02-26T04:21:26;100202.06;;;10.63
76713;BMP280;65640;43.154;25.658;2024-02-26T04:23:51;100207.63;;;10.51
76713;BMP280;65640;43.154;25.658;2024-02-26T04:26:20;100206.84;;;10.56
76713;BMP280;65640;43.154;25.658;2024-02-26T04:28:46;100207.53;;;10.66
76713;BMP280;65640;43.154;25.658;2024-02-26T04:31:11;100206.50;;;10.62
76713;BMP280;65640;43.154;25.658;2024-02-26T04:33:36;100199.38;;;10.68
76713;BMP280;65640;43.154;25.658;2024-02-26T04:36:02;100201.53;;;10.61
76713;BMP280;65640;43.154;25.658;2024-02-26T04:38:28;100208.13;;;10.58
76713;BMP280;65640;43.154;25.658;2024-02-26T04:40:53;100211.25;;;10.60
76713;BMP280;65640;43.154;25.658;2024-02-26T04:43:19;100208.63;;;10.60
76713;BMP280;65640;43.154;25.658;2024-02-26T04:45:44;100201.03;;;10.59
76713;BMP280;65640;43.154;25.658;2024-02-26T04:48:10;100208.47;;;10.46
76713;BMP280;65640;43.154;25.658;2024-02-26T04:50:35;100199.00;;;10.51
76713;BMP280;65640;43.154;25.658;2024-02-26T04:53:00;100201.63;;;10.51
76713;BMP280;65640;43.154;25.658;2024-02-26T04:55:26;100198.53;;;10.43
76713;BMP280;65640;43.154;25.658;2024-02-26T04:57:51;100208.72;;;10.45
76713;BMP280;65640;43.154;25.658;2024-02-26T05:00:17;100209.78;;;10.44
76713;BMP280;65640;43.154;25.658;2024-02-26T05:02:42;100213.44;;;10.43
76713;BMP280;65640;43.154;25.658;2024-02-26T05:05:08;100212.13;;;10.45
76713;BMP280;65640;43.154;25.658;2024-02-26T05:07:35;100201.94;;;10.44
76713;BMP280;65640;43.154;25.658;2024-02-26T05:10:04;100208.75;;;10.40
76713;BMP280;65640;43.154;25.658;2024-02-26T05:12:30;100209.00;;;10.43
76713;BMP280;65640;43.154;25.658;2024-02-26T05:14:56;100208.97;;;10.48
76713;BMP280;65640;43.154;25.658;2024-02-26T05:17:21;100209.50;;;10.45
76713;BMP280;65640;43.154;25.658;2024-02-26T05:19:46;100216.03;;;10.48
76713;BMP280;65640;43.154;25.658;2024-02-26T05:22:12;100218.88;;;10.57
76713;BMP280;65640;43.154;25.658;2024-02-26T05:24:38;100222.81;;;10.54
76713;BMP280;65640;43.154;25.658;2024-02-26T05:27:04;100221.97;;;10.59
76713;BMP280;65640;43.154;25.658;2024-02-26T05:29:29;100228.22;;;10.63
76713;BMP280;65640;43.154;25.658;2024-02-26T05:31:54;100220.63;;;10.61
76713;BMP280;65640;43.154;25.658;2024-02-26T05:34:20;100218.31;;;10.60
76713;BMP280;65640;43.154;25.658;2024-02-26T05:36:45;100227.97;;;10.64
76713;BMP280;65640;43.154;25.658;2024-02-26T05:39:11;100235.25;;;10.67
76713;BMP280;65640;43.154;25.658;2024-02-26T05:41:37;100238.94;;;10.66
76713;BMP280;65640;43.154;25.658;2024-02-26T05:44:02;100246.28;;;10.64
76713;BMP280;65640;43.154;25.658;2024-02-26T05:46:29;100248.97;;;10.54
76713;BMP280;65640;43.154;25.658;2024-02-26T05:48:54;100245.50;;;10.64
76713;BMP280;65640;43.154;25.658;2024-02-26T05:51:19;100252.91;;;10.52
76713;BMP280;65640;43.154;25.658;2024-02-26T05:53:45;100251.06;;;10.52
76713;BMP280;65640;43.154;25.658;2024-02-26T05:56:12;100251.06;;;10.57
76713;BMP280;65640;43.154;25.658;2024-02-26T05:58:37;100260.50;;;10.53
76713;BMP280;65640;43.154;25.658;2024-02-26T06:01:03;100254.50;;;10.47
76713;BMP280;65640;43.154;25.658;2024-02-26T06:03:29;100262.09;;;10.44
76713;BMP280;65640;43.154;25.658;2024-02-26T06:05:54;100251.69;;;10.39
76713;BMP280;65640;43.154;25.658;2024-02-26T06:08:20;100261.63;;;10.42
76713;BMP280;65640;43.154;25.658;2024-02-26T06:10:45;100258.94;;;10.52
76713;BMP280;65640;43.154;25.658;2024-02-26T06:13:10;100267.81;;;10.56
76713;BMP280;65640;43.154;25.658;2024-02-26T06:15:36;100271.44;;;10.60
76713;BMP280;65640;43.154;25.658;2024-02-26T06:18:01;100268.78;;;10.65
76713;BMP280;65640;43.154;25.658;2024-02-26T06:20:27;100268.22;;;10.68
76713;BMP280;65640;43.154;25.658;2024-02-26T06:22:52;100269.22;;;10.82
76713;BMP280;65640;43.154;25.658;2024-02-26T06:25:17;100264.41;;;10.89
76713;BMP280;65640;43.154;25.658;2024-02-26T06:27:43;100271.41;;;10.99
76713;BMP280;65640;43.154;25.658;2024-02-26T06:30:08;100276.78;;;11.13
76713;BMP280;65640;43.154;25.658;2024-02-26T06:32:37;100273.06;;;11.19
76713;BMP280;65640;43.154;25.658;2024-02-26T06:35:02;100283.13;;;11.36
76713;BMP280;65640;43.154;25.658;2024-02-26T06:37:32;100277.78;;;11.46
76713;BMP280;65640;43.154;25.658;2024-02-26T06:39:59;100273.94;;;11.62
76713;BMP280;65640;43.154;25.658;2024-02-26T06:42:24;100273.25;;;11.75
76713;BMP280;65640;43.154;25.658;2024-02-26T06:44:50;100282.25;;;11.93
76713;BMP280;65640;43.154;25.658;2024-02-26T06:47:15;100277.19;;;11.96
76713;BMP280;65640;43.154;25.658;2024-02-26T06:49:40;100268.94;;;12.08
76713;BMP280;65640;43.154;25.658;2024-02-26T06:52:06;100268.78;;;12.18
76713;BMP280;65640;43.154;25.658;2024-02-26T06:54:31;100265.03;;;12.24
76713;BMP280;65640;43.154;25.658;2024-02-26T06:56:57;100266.88;;;12.24
76713;BMP280;65640;43.154;25.658;2024-02-26T06:59:22;100268.09;;;12.31
76713;BMP280;65640;43.154;25.658;2024-02-26T07:01:48;100270.22;;;12.29
76713;BMP280;65640;43.154;25.658;2024-02-26T07:04:14;100277.22;;;12.34
76713;BMP280;65640;43.154;25.658;2024-02-26T07:06:39;100281.94;;;12.37
76713;BMP280;65640;43.154;25.658;2024-02-26T07:09:05;100268.91;;;12.45
76713;BMP280;65640;43.154;25.658;2024-02-26T07:11:30;100277.19;;;12.52
76713;BMP280;65640;43.154;25.658;2024-02-26T07:13:55;100273.75;;;12.57
76713;BMP280;65640;43.154;25.658;2024-02-26T07:16:21;100277.56;;;12.65
76713;BMP280;65640;43.154;25.658;2024-02-26T07:18:46;100277.03;;;12.81
76713;BMP280;65640;43.154;25.658;2024-02-26T07:21:12;100278.63;;;12.96
76713;BMP280;65640;43.154;25.658;2024-02-26T07:23:37;100276.19;;;13.13
76713;BMP280;65640;43.154;25.658;2024-02-26T07:26:03;100276.72;;;13.29
76713;BMP280;65640;43.154;25.658;2024-02-26T07:28:28;100271.88;;;13.50
76713;BMP280;65640;43.154;25.658;2024-02-26T07:30:54;100277.28;;;13.67
76713;BMP280;65640;43.154;25.658;2024-02-26T07:33:19;100272.78;;;13.81
76713;BMP280;65640;43.154;25.658;2024-02-26T07:35:45;100278.44;;;13.88
76713;BMP280;65640;43.154;25.658;2024-02-26T07:38:10;100277.47;;;13.98
76713;BMP280;65640;43.154;25.658;2024-02-26T07:40:36;100277.22;;;14.08
76713;BMP280;65640;43.154;25.658;2024-02-26T07:43:01;100273.09;;;14.15
76713;BMP280;65640;43.154;25.658;2024-02-26T07:45:27;100279.59;;;14.32
76713;BMP280;65640;43.154;25.658;2024-02-26T07:47:52;100281.34;;;14.45
76713;BMP280;65640;43.154;25.658;2024-02-26T07:50:18;100279.97;;;14.61
76713;BMP280;65640;43.154;25.658;2024-02-26T07:52:44;100277.72;;;14.77
76713;BMP280;65640;43.154;25.658;2024-02-26T07:55:10;100275.63;;;14.96
76713;BMP280;65640;43.154;25.658;2024-02-26T07:57:36;100279.88;;;15.05
76713;BMP280;65640;43.154;25.658;2024-02-26T08:00:02;100275.16;;;15.25
76713;BMP280;65640;43.154;25.658;2024-02-26T08:02:28;100283.84;;;15.42
76713;BMP280;65640;43.154;25.658;2024-02-26T08:04:54;100279.75;;;15.67
76713;BMP280;65640;43.154;25.658;2024-02-26T08:07:19;100289.69;;;15.87
76713;BMP280;65640;43.154;25.658;2024-02-26T08:09:46;100278.03;;;15.97
76713;BMP280;65640;43.154;25.658;2024-02-26T08:12:12;100271.53;;;16.12
76713;BMP280;65640;43.154;25.658;2024-02-26T08:14:37;100276.94;;;16.24
76713;BMP280;65640;43.154;25.658;2024-02-26T08:17:03;100278.06;;;16.23
76713;BMP280;65640;43.154;25.658;2024-02-26T08:19:28;100277.88;;;16.28
76713;BMP280;65640;43.154;25.658;2024-02-26T08:21:53;100273.38;;;16.37
76713;BMP280;65640;43.154;25.658;2024-02-26T08:24:19;100277.25;;;16.31
76713;BMP280;65640;43.154;25.658;2024-02-26T08:26:45;100278.94;;;16.35
76713;BMP280;65640;43.154;25.658;2024-02-26T08:29:10;100271.19;;;16.30
76713;BMP280;65640;43.154;25.658;2024-02-26T08:31:35;100276.00;;;16.45
76713;BMP280;65640;43.154;25.658;2024-02-26T08:34:03;100273.78;;;16.65
76713;BMP280;65640;43.154;25.658;2024-02-26T08:36:29;100280.25;;;16.84
76713;BMP280;65640;43.154;25.658;2024-02-26T08:38:57;100277.84;;;17.00
76713;BMP280;65640;43.154;25.658;2024-02-26T08:41:23;100269.50;;;17.19
76713;BMP280;65640;43.154;25.658;2024-02-26T08:43:48;100278.25;;;17.40
76713;BMP280;65640;43.154;25.658;2024-02-26T08:46:13;100271.34;;;17.47
76713;BMP280;65640;43.154;25.658;2024-02-26T08:48:39;100267.72;;;17.52
76713;BMP280;65640;43.154;25.658;2024-02-26T08:51:06;100269.75;;;17.55
76713;BMP280;65640;43.154;25.658;2024-02-26T08:53:32;100264.03;;;17.65
76713;BMP280;65640;43.154;25.658;2024-02-26T08:55:58;100258.56;;;17.70
76713;BMP280;65640;43.154;25.658;2024-02-26T08:58:23;100257.41;;;17.80
76713;BMP280;65640;43.154;25.658;2024-02-26T09:00:48;100262.81;;;17.83
76713;BMP280;65640;43.154;25.658;2024-02-26T09:03:14;100259.97;;;17.88
76713;BMP280;65640;43.154;25.658;2024-02-26T09:05:39;100254.63;;;18.09
76713;BMP280;65640;43.154;25.658;2024-02-26T09:08:05;100255.91;;;18.24
76713;BMP280;65640;43.154;25.658;2024-02-26T09:10:30;100256.13;;;18.31
76713;BMP280;65640;43.154;25.658;2024-02-26T09:12:57;100257.72;;;18.44
76713;BMP280;65640;43.154;25.658;2024-02-26T09:15:22;100258.38;;;18.41
76713;BMP280;65640;43.154;25.658;2024-02-26T09:17:47;100263.03;;;18.44
76713;BMP280;65640;43.154;25.658;2024-02-26T09:20:15;100256.16;;;18.55
76713;BMP280;65640;43.154;25.658;2024-02-26T09:22:45;100257.50;;;18.49
76713;BMP280;65640;43.154;25.658;2024-02-26T09:25:10;100261.47;;;18.55
76713;BMP280;65640;43.154;25.658;2024-02-26T09:27:36;100253.09;;;18.65
76713;BMP280;65640;43.154;25.658;2024-02-26T09:30:01;100254.22;;;18.64
76713;BMP280;65640;43.154;25.658;2024-02-26T09:32:26;100251.09;;;18.62
76713;BMP280;65640;43.154;25.658;2024-02-26T09:34:52;100247.47;;;18.67
76713;BMP280;65640;43.154;25.658;2024-02-26T09:37:17;100247.88;;;18.57
76713;BMP280;65640;43.154;25.658;2024-02-26T09:39:43;100248.78;;;18.61
76713;BMP280;65640;43.154;25.658;2024-02-26T09:42:09;100246.25;;;18.76
76713;BMP280;65640;43.154;25.658;2024-02-26T09:44:39;100246.47;;;18.83
76713;BMP280;65640;43.154;25.658;2024-02-26T09:47:05;100255.09;;;18.80
76713;BMP280;65640;43.154;25.658;2024-02-26T09:49:33;100256.38;;;18.74
76713;BMP280;65640;43.154;25.658;2024-02-26T09:51:59;100250.22;;;18.70
76713;BMP280;65640;43.154;25.658;2024-02-26T09:54:27;100257.28;;;18.78
76713;BMP280;65640;43.154;25.658;2024-02-26T09:56:53;100248.69;;;18.81
76713;BMP280;65640;43.154;25.658;2024-02-26T09:59:22;100256.22;;;18.91
76713;BMP280;65640;43.154;25.658;2024-02-26T10:01:47;100246.66;;;18.78
76713;BMP280;65640;43.154;25.658;2024-02-26T10:04:14;100241.84;;;18.68
76713;BMP280;65640;43.154;25.658;2024-02-26T10:06:40;100244.16;;;18.82
76713;BMP280;65640;43.154;25.658;2024-02-26T10:09:05;100240.03;;;18.97
76713;BMP280;65640;43.154;25.658;2024-02-26T10:11:35;100232.84;;;19.09
76713;BMP280;65640;43.154;25.658;2024-02-26T10:14:00;100223.63;;;19.31
76713;BMP280;65640;43.154;25.658;2024-02-26T10:16:26;100219.13;;;19.47
76713;BMP280;65640;43.154;25.658;2024-02-26T10:18:52;100211.06;;;19.71
76713;BMP280;65640;43.154;25.658;2024-02-26T10:21:21;100209.91;;;19.84
76713;BMP280;65640;43.154;25.658;2024-02-26T10:23:48;100192.09;;;20.01
76713;BMP280;65640;43.154;25.658;2024-02-26T10:26:14;100186.09;;;20.04
76713;BMP280;65640;43.154;25.658;2024-02-26T10:28:44;100185.50;;;20.10
76713;BMP280;65640;43.154;25.658;2024-02-26T10:31:10;100182.75;;;20.22
76713;BMP280;65640;43.154;25.658;2024-02-26T10:33:37;100176.78;;;20.45
76713;BMP280;65640;43.154;25.658;2024-02-26T10:36:04;100162.84;;;20.67
76713;BMP280;65640;43.154;25.658;2024-02-26T10:38:30;100169.91;;;20.78
76713;BMP280;65640;43.154;25.658;2024-02-26T10:40:56;100166.81;;;20.92
76713;BMP280;65640;43.154;25.658;2024-02-26T10:43:21;100150.28;;;21.02
76713;BMP280;65640;43.154;25.658;2024-02-26T10:45:46;100147.94;;;21.01
76713;BMP280;65640;43.154;25.658;2024-02-26T10:48:14;100145.94;;;21.13
76713;BMP280;65640;43.154;25.658;2024-02-26T10:50:40;100134.69;;;21.23
76713;BMP280;65640;43.154;25.658;2024-02-26T10:53:21;100138.63;;;21.29
76713;BMP280;65640;43.154;25.658;2024-02-26T10:55:51;100129.53;;;21.53
76713;BMP280;65640;43.154;25.658;2024-02-26T10:58:18;100130.78;;;21.59
76713;BMP280;65640;43.154;25.658;2024-02-26T11:00:45;100125.69;;;21.73
76713;BMP280;65640;43.154;25.658;2024-02-26T11:03:12;100117.25;;;21.71
76713;BMP280;65640;43.154;25.658;2024-02-26T11:05:41;100119.91;;;21.94
76713;BMP280;65640;43.154;25.658;2024-02-26T11:08:07;100118.41;;;21.97
76713;BMP280;65640;43.154;25.658;2024-02-26T11:10:33;100110.19;;;22.05
76713;BMP280;65640;43.154;25.658;2024-02-26T11:12:59;100109.69;;;22.26
76713;BMP280;65640;43.154;25.658;2024-02-26T11:15:27;100109.38;;;22.31
76713;BMP280;65640;43.154;25.658;2024-02-26T11:17:55;100087.78;;;22.39
76713;BMP280;65640;43.154;25.658;2024-02-26T11:20:23;100102.38;;;22.49
76713;BMP280;65640;43.154;25.658;2024-02-26T11:22:48;100095.09;;;22.46
76713;BMP280;65640;43.154;25.658;2024-02-26T11:25:14;100094.31;;;22.45
76713;BMP280;65640;43.154;25.658;2024-02-26T11:27:50;100089.19;;;22.30
76713;BMP280;65640;43.154;25.658;2024-02-26T11:30:18;100097.69;;;22.39
76713;BMP280;65640;43.154;25.658;2024-02-26T11:32:47;100092.38;;;22.42
76713;BMP280;65640;43.154;25.658;2024-02-26T11:35:13;100083.22;;;22.40
76713;BMP280;65640;43.154;25.658;2024-02-26T11:37:41;100082.06;;;22.41
76713;BMP280;65640;43.154;25.658;2024-02-26T11:40:11;100082.56;;;22.50
76713;BMP280;65640;43.154;25.658;2024-02-26T11:42:43;100079.56;;;22.55
76713;BMP280;65640;43.154;25.658;2024-02-26T11:48:14;100069.88;;;22.73
76713;BMP280;65640;43.154;25.658;2024-02-26T11:50:42;100072.19;;;22.78
76713;BMP280;65640;43.154;25.658;2024-02-26T11:53:24;100081.94;;;22.64
76713;BMP280;65640;43.154;25.658;2024-02-26T11:59:09;100070.19;;;22.68
76713;BMP280;65640;43.154;25.658;2024-02-26T12:04:05;100070.38;;;22.86
76713;BMP280;65640;43.154;25.658;2024-02-26T12:06:40;100068.53;;;22.93
76713;BMP280;65640;43.154;25.658;2024-02-26T12:09:07;100075.34;;;22.87
76713;BMP280;65640;43.154;25.658;2024-02-26T12:11:32;100065.78;;;22.86
76713;BMP280;65640;43.154;25.658;2024-02-26T12:13:58;100068.53;;;22.93
76713;BMP280;65640;43.154;25.658;2024-02-26T12:16:39;100062.31;;;22.82
76713;BMP280;65640;43.154;25.658;2024-02-26T12:19:08;100062.25;;;22.75
76713;BMP280;65640;43.154;25.658;2024-02-26T12:21:35;100067.00;;;22.89
76713;BMP280;65640;43.154;25.658;2024-02-26T12:24:14;100065.16;;;22.96
76713;BMP280;65640;43.154;25.658;2024-02-26T12:26:41;100064.59;;;22.80
76713;BMP280;65640;43.154;25.658;2024-02-26T12:29:07;100075.13;;;22.66
76713;BMP280;65640;43.154;25.658;2024-02-26T12:31:34;100070.03;;;22.54
76713;BMP280;65640;43.154;25.658;2024-02-26T12:34:02;100078.00;;;22.51
76713;BMP280;65640;43.154;25.658;2024-02-26T12:36:28;100074.91;;;22.48
76713;BMP280;65640;43.154;25.658;2024-02-26T12:38:53;100077.03;;;22.66
76713;BMP280;65640;43.154;25.658;2024-02-26T12:41:20;100077.25;;;22.50
76713;BMP280;65640;43.154;25.658;2024-02-26T12:43:46;100073.44;;;22.51
76713;BMP280;65640;43.154;25.658;2024-02-26T12:46:11;100070.31;;;22.45
76713;BMP280;65640;43.154;25.658;2024-02-26T12:48:38;100067.34;;;22.54
76713;BMP280;65640;43.154;25.658;2024-02-26T12:51:04;100067.72;;;22.53
76713;BMP280;65640;43.154;25.658;2024-02-26T12:53:31;100060.13;;;22.55
76713;BMP280;65640;43.154;25.658;2024-02-26T12:55:57;100066.56;;;22.50
76713;BMP280;65640;43.154;25.658;2024-02-26T12:58:23;100073.84;;;22.53
76713;BMP280;65640;43.154;25.658;2024-02-26T13:00:51;100078.75;;;22.48
76713;BMP280;65640;43.154;25.658;2024-02-26T13:03:17;100080.22;;;22.45
76713;BMP280;65640;43.154;25.658;2024-02-26T13:05:42;100077.69;;;22.26
76713;BMP280;65640;43.154;25.658;2024-02-26T13:08:08;100081.03;;;22.19
76713;BMP280;65640;43.154;25.658;2024-02-26T13:10:33;100079.69;;;22.32
76713;BMP280;65640;43.154;25.658;2024-02-26T13:13:02;100079.00;;;22.39
76713;BMP280;65640;43.154;25.658;2024-02-26T13:15:27;100080.84;;;22.35
76713;BMP280;65640;43.154;25.658;2024-02-26T13:17:53;100087.41;;;22.41
76713;BMP280;65640;43.154;25.658;2024-02-26T13:20:30;100088.50;;;22.36
76713;BMP280;65640;43.154;25.658;2024-02-26T13:23:05;100092.25;;;22.32
76713;BMP280;65640;43.154;25.658;2024-02-26T13:25:31;100097.69;;;22.39
76713;BMP280;65640;43.154;25.658;2024-02-26T13:28:06;100095.28;;;22.30
76713;BMP280;65640;43.154;25.658;2024-02-26T13:30:32;100097.47;;;22.21
76713;BMP280;65640;43.154;25.658;2024-02-26T13:33:07;100093.41;;;22.05
76713;BMP280;65640;43.154;25.658;2024-02-26T13:35:33;100102.22;;;21.82
76713;BMP280;65640;43.154;25.658;2024-02-26T13:38:00;100103.09;;;21.67
76713;BMP280;65640;43.154;25.658;2024-02-26T13:40:25;100103.94;;;21.49
76713;BMP280;65640;43.154;25.658;2024-02-26T13:42:51;100109.44;;;21.36
76713;BMP280;65640;43.154;25.658;2024-02-26T13:45:18;100111.50;;;21.24
76713;BMP280;65640;43.154;25.658;2024-02-26T13:47:43;100106.53;;;21.22